Time;durP1;ratioP1;P1;durP2;ratioP2;P2;SDS_P1;SDS_P2;PMS_P1;PMS_P2;Temp;Humidity;BMP_temperature;BMP_pressure;BME280_temperature;BME280_humidity;BME280_pressure;Samples;Min_cycle;Max_cycle;Signal;HPM_P1;HPM_P2
2023/08/17 00:00:27;;;;;;;2.03;1.87;;;19.70;99.90;;;;;;5142035;28;20534;-46
2023/08/17 00:02:57;;;;;;;11.43;3.13;;;19.70;99.90;;;;;;5144679;28;20247;-46
2023/08/17 00:05:28;;;;;;;7.40;2.40;;;19.70;99.90;;;;;;5145029;28;20182;-47
2023/08/17 00:08:02;;;;;;;7.27;2.60;;;19.70;99.90;;;;;;5140416;28;20217;-46
2023/08/17 00:10:32;;;;;;;3.20;2.23;;;19.60;99.90;;;;;;5129416;28;20201;-45
2023/08/17 00:13:04;;;;;;;2.33;2.20;;;19.60;99.90;;;;;;5148112;28;20446;-46
2023/08/17 00:15:35;;;;;;;8.07;2.20;;;19.60;99.90;;;;;;5128336;28;20209;-46
2023/08/17 00:18:05;;;;;;;2.50;2.33;;;19.60;99.90;;;;;;5140886;28;20557;-45
2023/08/17 00:20:36;;;;;;;4.67;2.33;;;19.60;99.90;;;;;;5142266;28;20202;-45
2023/08/17 00:23:07;;;;;;;3.30;3.10;;;19.60;99.90;;;;;;5145734;28;20192;-45
2023/08/17 00:25:37;;;;;;;2.90;2.70;;;19.50;99.90;;;;;;5142216;28;20643;-46
2023/08/17 00:28:08;;;;;;;4.50;2.67;;;19.50;99.90;;;;;;5141338;28;20243;-46
2023/08/17 00:30:39;;;;;;;4.33;2.60;;;19.40;99.90;;;;;;5142555;28;20210;-47
2023/08/17 00:33:10;;;;;;;6.30;2.90;;;19.40;99.90;;;;;;5146735;28;20208;-44
2023/08/17 00:35:40;;;;;;;3.80;2.93;;;19.30;99.90;;;;;;5127027;28;20197;-47
2023/08/17 00:38:12;;;;;;;3.57;3.03;;;19.30;99.90;;;;;;5142967;28;20209;-46
2023/08/17 00:40:43;;;;;;;3.03;2.80;;;19.20;99.90;;;;;;5142781;28;20729;-45
2023/08/17 00:43:14;;;;;;;3.70;2.50;;;19.20;99.90;;;;;;5127036;28;20441;-47
2023/08/17 00:45:46;;;;;;;2.57;2.47;;;19.20;99.90;;;;;;5146157;28;20192;-46
2023/08/17 00:48:16;;;;;;;4.03;3.13;;;19.10;99.90;;;;;;5141805;28;20565;-47
2023/08/17 00:50:50;;;;;;;3.77;2.50;;;19.10;99.90;;;;;;5120343;28;20475;-44
2023/08/17 00:53:21;;;;;;;4.00;2.50;;;19.10;99.90;;;;;;5140347;28;20276;-44
2023/08/17 00:55:53;;;;;;;3.30;2.90;;;19.10;99.90;;;;;;5143220;28;20448;-45
2023/08/17 00:58:24;;;;;;;2.40;2.30;;;19.00;99.90;;;;;;5129857;28;20845;-45
2023/08/17 01:00:55;;;;;;;5.70;3.00;;;19.00;99.90;;;;;;5139589;28;20469;-44
2023/08/17 01:03:30;;;;;;;3.13;2.77;;;19.00;99.90;;;;;;5145370;28;20202;-46
2023/08/17 01:06:02;;;;;;;5.70;3.20;;;18.90;99.90;;;;;;5140328;28;20498;-45
2023/08/17 01:08:33;;;;;;;4.53;3.23;;;18.90;99.90;;;;;;5142840;28;20532;-46
2023/08/17 01:11:16;;;;;;;3.53;2.60;;;18.90;99.90;;;;;;5142978;28;20559;-44
2023/08/17 01:13:56;;;;;;;3.23;3.03;;;18.80;99.90;;;;;;5124956;28;20444;-44
2023/08/17 01:16:32;;;;;;;3.10;2.90;;;18.80;99.90;;;;;;5140917;28;20441;-48
2023/08/17 01:19:09;;;;;;;2.80;2.00;;;18.90;99.90;;;;;;5146388;28;20448;-47
2023/08/17 01:21:50;;;;;;;2.90;2.60;;;18.90;99.90;;;;;;5146422;28;20456;-46
2023/08/17 01:24:20;;;;;;;10.37;3.27;;;18.80;99.90;;;;;;5137935;28;20495;-48
2023/08/17 01:26:51;;;;;;;3.80;2.63;;;18.80;99.90;;;;;;5146000;28;20528;-44
2023/08/17 01:29:22;;;;;;;9.73;3.80;;;18.80;99.90;;;;;;5143379;28;20185;-45
2023/08/17 01:32:18;;;;;;;6.80;2.70;;;18.80;99.90;;;;;;5135346;28;20255;-45
2023/08/17 01:35:01;;;;;;;12.47;3.20;;;18.80;99.90;;;;;;5143837;28;20452;-46
2023/08/17 01:37:34;;;;;;;3.23;2.93;;;18.70;99.90;;;;;;5131642;28;20464;-45
2023/08/17 01:40:07;;;;;;;7.50;2.90;;;18.70;99.90;;;;;;5145844;28;21054;-45
2023/08/17 01:42:38;;;;;;;7.10;2.73;;;18.70;99.90;;;;;;5133257;28;20468;-45
2023/08/17 01:45:10;;;;;;;6.07;3.13;;;18.70;99.90;;;;;;5135677;28;20845;-46
2023/08/17 01:47:41;;;;;;;2.70;2.57;;;18.60;99.90;;;;;;5132836;28;20437;-44
2023/08/17 01:50:12;;;;;;;3.33;2.87;;;18.60;99.90;;;;;;5146953;28;20440;-44
2023/08/17 01:52:42;;;;;;;5.80;3.10;;;18.60;99.90;;;;;;5148074;28;20220;-47
2023/08/17 01:55:13;;;;;;;4.20;3.53;;;18.60;99.90;;;;;;5134355;28;20239;-44
2023/08/17 01:57:44;;;;;;;2.67;2.47;;;18.60;99.90;;;;;;5135224;28;20574;-48
2023/08/17 02:00:15;;;;;;;2.90;2.40;;;18.60;99.90;;;;;;5149411;28;20190;-44
2023/08/17 02:02:46;;;;;;;3.00;2.80;;;18.60;99.90;;;;;;5148649;28;20216;-45
2023/08/17 02:05:17;;;;;;;9.90;3.00;;;18.60;99.90;;;;;;5151298;28;20437;-47
2023/08/17 02:07:47;;;;;;;3.63;3.30;;;18.60;99.90;;;;;;5134846;28;20189;-46
2023/08/17 02:10:18;;;;;;;5.23;3.33;;;18.50;99.90;;;;;;5150923;28;20669;-45
2023/08/17 02:12:49;;;;;;;3.50;3.20;;;18.50;99.90;;;;;;5144972;28;20198;-46
2023/08/17 02:15:20;;;;;;;6.97;3.13;;;18.50;99.90;;;;;;5130969;28;20185;-45
2023/08/17 02:17:50;;;;;;;7.60;3.77;;;18.50;99.90;;;;;;5146359;28;20823;-47
2023/08/17 02:20:21;;;;;;;4.77;3.23;;;18.50;99.90;;;;;;5148060;28;20268;-47
2023/08/17 02:22:52;;;;;;;5.43;3.70;;;18.40;99.90;;;;;;5149505;28;20178;-47
2023/08/17 02:25:22;;;;;;;5.53;3.53;;;18.40;99.90;;;;;;5146432;28;20224;-47
2023/08/17 02:27:53;;;;;;;9.47;3.07;;;18.30;99.90;;;;;;5142585;28;20676;-46
2023/08/17 02:30:24;;;;;;;5.47;3.10;;;18.30;99.90;;;;;;5146979;28;20671;-46
2023/08/17 02:32:55;;;;;;;4.50;3.50;;;18.30;99.90;;;;;;5133896;28;20558;-47
2023/08/17 02:35:25;;;;;;;7.03;3.67;;;18.30;99.90;;;;;;5146780;28;20264;-46
2023/08/17 02:37:56;;;;;;;3.80;3.50;;;18.60;99.90;;;;;;5131611;28;20209;-46
2023/08/17 02:40:27;;;;;;;7.30;3.63;;;18.30;99.90;;;;;;5145005;28;20654;-46
2023/08/17 02:42:58;;;;;;;5.93;4.03;;;18.20;99.90;;;;;;5145440;28;20665;-46
2023/08/17 02:45:28;;;;;;;3.50;3.20;;;18.20;99.90;;;;;;5150589;28;20182;-44
2023/08/17 02:47:59;;;;;;;5.87;3.70;;;18.20;99.90;;;;;;5129649;28;20549;-46
2023/08/17 02:50:30;;;;;;;3.70;3.40;;;18.20;99.90;;;;;;5131897;28;20213;-47
2023/08/17 02:53:01;;;;;;;5.17;3.27;;;18.20;99.90;;;;;;5146196;28;20264;-46
2023/08/17 02:55:32;;;;;;;6.57;3.47;;;18.20;99.90;;;;;;5146021;28;20216;-45
2023/08/17 02:58:03;;;;;;;4.80;3.70;;;18.20;99.90;;;;;;5131826;28;20939;-46
2023/08/17 03:00:34;;;;;;;6.00;3.60;;;18.20;99.90;;;;;;5141019;28;20210;-46
2023/08/17 03:03:04;;;;;;;8.50;3.03;;;18.20;99.90;;;;;;5135039;28;20284;-47
2023/08/17 03:05:35;;;;;;;5.63;3.13;;;18.20;99.90;;;;;;5142157;28;20185;-46
2023/08/17 03:08:06;;;;;;;7.40;2.97;;;18.20;99.90;;;;;;5126694;28;20558;-45
2023/08/17 03:10:37;;;;;;;2.40;2.20;;;18.30;99.90;;;;;;5128199;28;20249;-46
2023/08/17 03:13:08;;;;;;;2.70;2.53;;;18.30;99.90;;;;;;5145894;28;20196;-46
2023/08/17 03:15:39;;;;;;;2.67;2.47;;;18.30;99.90;;;;;;5130520;28;20457;-47
2023/08/17 03:18:10;;;;;;;6.33;2.50;;;18.30;99.90;;;;;;5144786;28;20209;-46
2023/08/17 03:20:41;;;;;;;2.27;2.07;;;18.40;99.90;;;;;;5143999;28;20464;-46
2023/08/17 03:23:12;;;;;;;2.33;2.17;;;18.40;99.90;;;;;;5140336;28;20241;-46
2023/08/17 03:25:42;;;;;;;11.43;2.53;;;18.40;99.90;;;;;;5132143;28;20534;-46
2023/08/17 03:28:13;;;;;;;2.87;2.10;;;18.50;99.90;;;;;;5147146;28;20195;-46
2023/08/17 03:30:44;;;;;;;2.20;2.13;;;18.50;99.90;;;;;;5132197;28;20209;-45
2023/08/17 03:33:14;;;;;;;7.23;2.80;;;18.50;99.90;;;;;;5126594;28;20260;-46
2023/08/17 03:35:45;;;;;;;3.47;3.27;;;18.40;99.90;;;;;;5142051;28;20224;-46
2023/08/17 03:38:16;;;;;;;3.27;2.87;;;18.40;99.90;;;;;;5142361;28;20248;-46
2023/08/17 03:40:47;;;;;;;3.33;3.17;;;18.30;99.90;;;;;;5127927;28;20209;-45
2023/08/17 03:43:18;;;;;;;2.87;2.60;;;18.30;99.90;;;;;;5126682;28;20189;-44
2023/08/17 03:45:48;;;;;;;2.73;2.53;;;18.20;99.90;;;;;;5148779;28;20507;-45
2023/08/17 03:48:21;;;;;;;4.43;2.13;;;18.20;99.90;;;;;;5142629;28;20199;-46
2023/08/17 03:50:55;;;;;;;2.50;2.40;;;18.20;99.90;;;;;;5141363;28;20284;-46
2023/08/17 03:53:25;;;;;;;2.93;1.97;;;18.20;99.90;;;;;;5129265;28;20456;-46
2023/08/17 03:55:56;;;;;;;7.10;2.60;;;18.20;99.90;;;;;;5127676;28;20448;-47
2023/08/17 03:58:32;;;;;;;12.70;2.90;;;18.20;99.90;;;;;;5140367;28;20245;-46
2023/08/17 04:01:03;;;;;;;10.20;2.97;;;18.20;99.90;;;;;;5141947;28;20678;-44
2023/08/17 04:03:33;;;;;;;5.40;2.20;;;18.30;99.90;;;;;;5130707;28;20483;-45
2023/08/17 04:06:06;;;;;;;3.10;2.80;;;18.30;99.90;;;;;;5143057;28;20465;-45
2023/08/17 04:08:37;;;;;;;3.03;2.40;;;18.20;99.90;;;;;;5143210;28;20185;-46
2023/08/17 04:11:08;;;;;;;3.20;2.00;;;18.30;99.90;;;;;;5144170;28;20476;-45
2023/08/17 04:13:39;;;;;;;2.47;1.97;;;18.30;99.90;;;;;;5127753;28;20934;-47
2023/08/17 04:16:09;;;;;;;6.90;2.67;;;18.30;99.90;;;;;;5144966;28;20205;-46
2023/08/17 04:18:40;;;;;;;2.00;1.50;;;18.30;99.90;;;;;;5143698;28;20217;-47
2023/08/17 04:21:10;;;;;;;3.20;2.10;;;18.30;99.90;;;;;;5145467;28;20197;-46
2023/08/17 04:23:41;;;;;;;1.57;1.47;;;18.30;99.90;;;;;;5146111;28;20621;-47
2023/08/17 04:26:12;;;;;;;5.00;2.37;;;18.40;99.90;;;;;;5140630;28;20683;-47
2023/08/17 04:28:43;;;;;;;2.40;2.27;;;18.40;99.90;;;;;;5143694;28;20194;-47
2023/08/17 04:31:13;;;;;;;2.27;2.07;;;18.40;99.90;;;;;;5139728;28;20288;-47
2023/08/17 04:33:44;;;;;;;2.07;1.90;;;18.40;99.90;;;;;;5148542;28;20585;-46
2023/08/17 04:36:15;;;;;;;6.20;2.20;;;18.50;99.90;;;;;;5126329;28;20189;-45
2023/08/17 04:38:45;;;;;;;14.00;2.20;;;18.60;99.90;;;;;;5139988;28;20221;-46
2023/08/17 04:41:16;;;;;;;2.23;1.50;;;18.60;99.90;;;;;;5135745;28;20224;-47
2023/08/17 04:43:49;;;;;;;2.63;1.70;;;18.70;99.90;;;;;;5142785;28;20266;-46
2023/08/17 04:46:19;;;;;;;3.47;2.10;;;18.80;99.90;;;;;;5140594;28;20442;-46
2023/08/17 04:48:50;;;;;;;2.07;1.97;;;18.90;99.90;;;;;;5147012;28;20987;-47
2023/08/17 04:51:21;;;;;;;1.77;1.67;;;19.00;99.90;;;;;;5147195;28;20846;-47
2023/08/17 04:53:52;;;;;;;3.33;1.67;;;19.00;99.90;;;;;;5132699;28;20236;-46
2023/08/17 04:56:24;;;;;;;9.17;1.97;;;19.30;99.90;;;;;;5144875;28;20795;-46
2023/08/17 04:58:54;;;;;;;2.10;1.40;;;19.70;99.90;;;;;;5146050;28;20536;-45
2023/08/17 05:01:25;;;;;;;3.37;2.23;;;19.90;99.90;;;;;;5127782;28;20492;-44
2023/08/17 05:03:56;;;;;;;3.30;1.90;;;20.40;99.90;;;;;;5143162;28;20217;-47
2023/08/17 05:06:28;;;;;;;2.60;2.40;;;21.10;99.90;;;;;;5143779;28;20200;-48
2023/08/17 05:08:59;;;;;;;4.43;2.30;;;21.40;99.90;;;;;;5147162;28;20272;-47
2023/08/17 05:11:30;;;;;;;2.87;2.30;;;21.30;99.90;;;;;;5147441;28;21081;-46
2023/08/17 05:14:00;;;;;;;2.93;1.60;;;21.00;99.90;;;;;;5143163;28;20592;-46
2023/08/17 05:16:31;;;;;;;4.20;2.27;;;20.60;99.90;;;;;;5138738;28;20594;-47
2023/08/17 05:19:02;;;;;;;4.17;1.87;;;20.40;99.90;;;;;;5146903;28;20181;-46
2023/08/17 05:21:36;;;;;;;3.60;1.70;;;20.20;99.90;;;;;;5126241;28;20202;-47
2023/08/17 05:24:07;;;;;;;2.50;1.87;;;20.20;99.90;;;;;;5126203;28;20707;-46
2023/08/17 05:26:38;;;;;;;2.53;1.70;;;20.40;99.90;;;;;;5141835;28;20436;-46
2023/08/17 05:29:08;;;;;;;1.97;1.87;;;20.90;99.90;;;;;;5139404;28;20186;-45
2023/08/17 05:31:39;;;;;;;1.90;1.80;;;21.50;99.90;;;;;;5145172;28;20456;-45
2023/08/17 05:34:10;;;;;;;7.30;1.70;;;22.00;99.90;;;;;;5143273;28;20190;-45
2023/08/17 05:36:41;;;;;;;2.13;2.00;;;22.70;99.90;;;;;;5141510;28;20265;-47
2023/08/17 05:39:12;;;;;;;3.53;1.60;;;22.80;99.90;;;;;;5138018;28;20524;-46
2023/08/17 05:41:42;;;;;;;1.77;1.60;;;22.60;99.90;;;;;;5128619;28;20205;-45
2023/08/17 05:44:15;;;;;;;1.90;1.80;;;22.60;99.90;;;;;;5128667;28;20193;-46
2023/08/17 05:46:45;;;;;;;2.10;1.90;;;22.70;99.90;;;;;;5145608;28;20555;-46
2023/08/17 05:49:16;;;;;;;3.40;1.80;;;22.80;99.90;;;;;;5112048;28;20437;-47
2023/08/17 05:51:47;;;;;;;8.13;1.67;;;22.40;99.90;;;;;;5142240;28;20220;-47
2023/08/17 05:54:17;;;;;;;7.50;2.00;;;21.70;99.90;;;;;;5145423;28;20273;-46
2023/08/17 05:56:48;;;;;;;4.10;2.50;;;21.40;99.90;;;;;;5142125;28;20629;-46
2023/08/17 05:59:19;;;;;;;6.37;1.70;;;21.20;99.90;;;;;;5141448;28;20634;-46
2023/08/17 06:01:49;;;;;;;3.40;2.30;;;21.10;99.90;;;;;;5143474;28;20209;-46
2023/08/17 06:04:20;;;;;;;2.97;1.60;;;21.10;99.90;;;;;;5143618;28;20626;-47
2023/08/17 06:06:51;;;;;;;2.07;1.90;;;21.20;99.90;;;;;;5146144;28;20441;-46
2023/08/17 06:09:22;;;;;;;2.27;1.70;;;21.30;99.90;;;;;;5145509;28;20194;-46
2023/08/17 06:11:53;;;;;;;1.53;1.53;;;21.40;99.90;;;;;;5142386;28;20201;-47
2023/08/17 06:14:23;;;;;;;3.13;1.63;;;21.50;99.90;;;;;;5139850;28;20196;-46
2023/08/17 06:16:54;;;;;;;1.50;1.40;;;21.60;99.90;;;;;;5129267;28;20580;-47
2023/08/17 06:19:25;;;;;;;2.43;1.70;;;21.60;99.90;;;;;;5145844;28;20284;-49
2023/08/17 06:21:56;;;;;;;2.30;2.10;;;21.60;99.90;;;;;;5145295;28;20208;-48
2023/08/17 06:24:27;;;;;;;2.13;1.97;;;21.50;99.90;;;;;;5128557;28;20934;-46
2023/08/17 06:26:57;;;;;;;3.50;1.90;;;21.40;99.90;;;;;;5119927;28;20189;-46
2023/08/17 06:29:28;;;;;;;3.93;1.70;;;21.40;99.90;;;;;;5111290;28;20647;-47
2023/08/17 06:31:59;;;;;;;2.70;1.60;;;21.60;99.90;;;;;;5112619;28;20308;-47
2023/08/17 06:34:29;;;;;;;2.40;1.53;;;21.70;99.90;;;;;;5142294;28;20916;-47
2023/08/17 06:37:02;;;;;;;2.50;2.30;;;21.70;99.90;;;;;;5145564;28;20565;-46
2023/08/17 06:39:33;;;;;;;5.43;2.33;;;21.80;99.90;;;;;;5138954;28;20220;-45
2023/08/17 06:42:04;;;;;;;1.90;1.90;;;21.80;99.90;;;;;;5139236;28;20546;-47
2023/08/17 06:44:35;;;;;;;2.67;1.40;;;21.60;99.90;;;;;;5142395;28;20557;-46
2023/08/17 06:47:05;;;;;;;8.47;2.50;;;21.60;99.90;;;;;;5124531;28;20678;-47
2023/08/17 06:49:36;;;;;;;2.20;1.80;;;21.60;99.90;;;;;;5141339;28;20248;-46
2023/08/17 06:52:07;;;;;;;4.70;1.70;;;21.70;99.90;;;;;;5143224;28;20245;-47
2023/08/17 06:54:37;;;;;;;2.07;1.80;;;21.90;99.90;;;;;;5139096;28;20245;-48
2023/08/17 06:57:08;;;;;;;3.63;2.57;;;22.30;99.90;;;;;;5138293;28;20274;-46
2023/08/17 06:59:39;;;;;;;4.50;3.03;;;22.50;99.90;;;;;;5142843;28;20186;-47
2023/08/17 07:02:10;;;;;;;1.90;1.50;;;22.70;99.90;;;;;;5144352;28;20280;-47
2023/08/17 07:04:40;;;;;;;1.90;1.80;;;22.50;99.90;;;;;;5143389;28;20281;-47
2023/08/17 07:07:11;;;;;;;4.30;2.00;;;22.40;99.90;;;;;;5138848;28;20211;-46
2023/08/17 07:09:42;;;;;;;1.80;1.63;;;22.10;99.90;;;;;;5137840;28;20178;-48
2023/08/17 07:12:13;;;;;;;5.90;1.93;;;21.90;99.90;;;;;;5142015;28;20532;-46
2023/08/17 07:14:44;;;;;;;3.07;2.03;;;22.00;99.90;;;;;;5143110;28;20563;-46
2023/08/17 07:17:15;;;;;;;1.73;1.73;;;22.30;99.90;;;;;;5105835;28;20206;-47
2023/08/17 07:19:46;;;;;;;3.70;2.47;;;22.40;99.90;;;;;;5126486;28;20555;-47
2023/08/17 07:22:16;;;;;;;2.90;2.70;;;22.40;99.90;;;;;;5141309;28;20529;-48
2023/08/17 07:24:47;;;;;;;2.20;2.20;;;22.30;99.90;;;;;;5123155;28;20213;-47
2023/08/17 07:27:18;;;;;;;3.73;2.30;;;22.00;99.90;;;;;;5140384;28;20321;-45
2023/08/17 07:29:48;;;;;;;4.60;2.40;;;21.80;99.90;;;;;;5126943;28;20823;-45
2023/08/17 07:32:20;;;;;;;4.97;2.13;;;21.60;99.90;;;;;;5142122;28;20244;-46
2023/08/17 07:34:51;;;;;;;3.70;2.00;;;21.50;99.90;;;;;;5144922;28;20189;-45
2023/08/17 07:37:22;;;;;;;3.83;2.40;;;21.50;99.90;;;;;;5143826;28;20468;-46
2023/08/17 07:39:53;;;;;;;1.67;1.57;;;21.50;99.90;;;;;;5142434;28;20281;-47
2023/08/17 07:42:23;;;;;;;2.20;2.10;;;21.60;99.90;;;;;;5140017;28;20201;-46
2023/08/17 07:44:54;;;;;;;2.10;2.00;;;21.60;99.90;;;;;;5141056;28;20853;-46
2023/08/17 07:47:25;;;;;;;7.70;2.77;;;21.70;99.90;;;;;;5141743;28;20248;-46
2023/08/17 07:49:57;;;;;;;4.10;2.10;;;21.90;99.90;;;;;;5142849;28;20448;-46
2023/08/17 07:52:28;;;;;;;2.90;2.70;;;22.00;99.90;;;;;;5141623;28;20202;-46
2023/08/17 07:54:59;;;;;;;2.50;1.80;;;22.10;99.90;;;;;;5143682;28;20452;-47
2023/08/17 07:57:30;;;;;;;4.13;2.40;;;22.20;99.90;;;;;;5120557;28;20201;-46
2023/08/17 08:00:01;;;;;;;6.33;2.50;;;22.10;99.90;;;;;;5135726;28;20436;-46
2023/08/17 08:02:31;;;;;;;3.93;2.13;;;22.10;99.90;;;;;;5135606;28;20210;-45
2023/08/17 08:05:02;;;;;;;2.80;1.80;;;22.10;99.90;;;;;;5139356;28;20236;-46
2023/08/17 08:07:33;;;;;;;1.90;1.90;;;22.30;99.90;;;;;;5144129;28;20643;-46
2023/08/17 08:10:04;;;;;;;7.10;2.07;;;22.40;99.90;;;;;;5141642;28;20178;-46
2023/08/17 08:12:35;;;;;;;3.27;2.30;;;22.50;99.90;;;;;;5140701;28;20205;-46
2023/08/17 08:15:06;;;;;;;2.37;2.17;;;22.80;99.90;;;;;;5139024;28;20820;-47
2023/08/17 08:17:37;;;;;;;6.50;3.40;;;22.90;99.90;;;;;;5143566;28;20635;-46
2023/08/17 08:20:08;;;;;;;8.93;2.43;;;23.10;99.90;;;;;;5138352;28;20541;-47
2023/08/17 08:22:39;;;;;;;2.83;2.50;;;23.70;99.90;;;;;;5123951;28;20470;-46
2023/08/17 08:25:10;;;;;;;2.90;2.70;;;25.00;99.90;;;;;;5142419;28;20441;-47
2023/08/17 08:27:41;;;;;;;9.37;3.00;;;26.80;99.90;;;;;;5138865;28;20197;-50
2023/08/17 08:30:12;;;;;;;2.30;2.17;;;27.60;98.60;;;;;;5141293;28;20432;-47
2023/08/17 08:32:42;;;;;;;2.23;2.03;;;27.90;96.50;;;;;;5145461;28;20197;-46
2023/08/17 08:35:13;;;;;;;2.83;1.77;;;27.70;94.30;;;;;;5143239;28;20576;-46
2023/08/17 08:37:44;;;;;;;2.20;2.10;;;27.00;94.60;;;;;;5147378;28;20280;-48
2023/08/17 08:40:16;;;;;;;2.97;2.73;;;26.30;95.80;;;;;;5142672;28;20258;-50
2023/08/17 08:42:47;;;;;;;5.23;2.53;;;25.20;97.70;;;;;;5125069;28;20194;-46
2023/08/17 08:45:18;;;;;;;2.30;2.17;;;25.00;99.70;;;;;;5141369;28;20441;-48
2023/08/17 08:47:50;;;;;;;2.47;1.90;;;24.80;99.90;;;;;;5145694;28;20192;-48
2023/08/17 08:50:22;;;;;;;4.50;3.07;;;24.50;99.90;;;;;;5128118;28;20898;-49
2023/08/17 08:53:01;;;;;;;2.40;2.30;;;24.20;99.90;;;;;;5138654;28;20440;-48
2023/08/17 08:55:41;;;;;;;5.63;2.67;;;24.00;99.90;;;;;;5123549;28;20437;-48
2023/08/17 08:58:21;;;;;;;10.10;2.63;;;23.60;99.90;;;;;;5114919;28;21009;-46
2023/08/17 09:00:53;;;;;;;4.10;3.03;;;23.30;99.90;;;;;;5142229;28;20474;-46
2023/08/17 09:03:25;;;;;;;2.90;2.80;;;23.00;99.90;;;;;;5139284;28;20536;-48
2023/08/17 09:05:57;;;;;;;8.70;2.53;;;22.80;99.90;;;;;;5133414;28;20441;-46
2023/08/17 09:08:30;;;;;;;2.60;2.50;;;22.80;99.90;;;;;;5129053;28;20531;-47
2023/08/17 09:11:01;;;;;;;5.53;2.10;;;22.80;99.90;;;;;;5138974;28;20554;-46
2023/08/17 09:13:32;;;;;;;2.50;2.40;;;22.70;99.90;;;;;;5141148;28;20448;-46
2023/08/17 09:16:03;;;;;;;7.50;2.77;;;22.70;99.90;;;;;;5124927;28;20189;-47
2023/08/17 09:18:35;;;;;;;4.73;2.97;;;22.60;99.90;;;;;;5142444;28;20233;-47
2023/08/17 09:21:06;;;;;;;2.77;2.43;;;22.50;99.90;;;;;;5138338;28;20797;-46
2023/08/17 09:23:40;;;;;;;7.77;2.70;;;22.40;99.90;;;;;;5133651;28;20436;-48
2023/08/17 09:26:10;;;;;;;3.93;2.60;;;22.40;99.90;;;;;;5135568;28;20757;-55
2023/08/17 09:28:41;;;;;;;4.33;2.87;;;22.40;99.90;;;;;;5146558;28;22152;-47
2023/08/17 09:31:13;;;;;;;3.50;3.27;;;22.30;99.90;;;;;;5124572;28;20268;-48
2023/08/17 09:33:48;;;;;;;11.90;2.97;;;22.30;99.90;;;;;;5145070;28;20182;-47
2023/08/17 09:36:23;;;;;;;2.73;2.63;;;22.40;99.90;;;;;;5139898;28;20444;-48
2023/08/17 09:38:56;;;;;;;5.80;2.67;;;22.50;99.90;;;;;;5140251;28;20922;-46
2023/08/17 09:41:27;;;;;;;3.40;2.10;;;22.80;99.90;;;;;;5140567;28;20988;-47
2023/08/17 09:43:57;;;;;;;7.63;2.70;;;23.20;99.90;;;;;;5129522;28;20441;-47
2023/08/17 09:46:29;;;;;;;4.63;2.83;;;23.50;99.90;;;;;;5137781;28;20217;-47
2023/08/17 09:49:04;;;;;;;2.70;2.50;;;23.70;99.90;;;;;;5144821;28;20174;-47
2023/08/17 09:51:35;;;;;;;4.57;2.63;;;23.90;99.90;;;;;;5142955;28;20457;-46
2023/08/17 09:54:06;;;;;;;8.47;2.77;;;23.90;99.90;;;;;;5138145;28;20472;-47
2023/08/17 09:56:37;;;;;;;3.10;2.90;;;24.20;99.90;;;;;;5126980;28;20201;-47
2023/08/17 09:59:07;;;;;;;4.07;2.40;;;24.30;99.90;;;;;;5124097;28;20213;-47
2023/08/17 10:01:39;;;;;;;2.53;2.43;;;24.50;99.90;;;;;;5138182;28;20301;-48
2023/08/17 10:04:12;;;;;;;2.80;2.60;;;24.50;99.90;;;;;;5141599;28;20724;-46
2023/08/17 10:06:43;;;;;;;3.50;2.40;;;24.40;99.90;;;;;;5135633;28;20449;-48
2023/08/17 10:09:20;;;;;;;4.10;2.67;;;24.50;99.90;;;;;;5125313;28;20437;-47
2023/08/17 10:11:54;;;;;;;3.20;2.70;;;24.40;99.90;;;;;;5142059;28;20452;-49
2023/08/17 10:14:36;;;;;;;3.40;2.40;;;24.40;99.90;;;;;;5125991;28;20495;-47
2023/08/17 10:17:12;;;;;;;3.50;2.30;;;24.40;99.90;;;;;;5134685;28;20465;-47
2023/08/17 10:19:51;;;;;;;6.30;2.97;;;24.50;99.90;;;;;;5135781;28;20442;-47
2023/08/17 10:22:42;;;;;;;2.87;2.20;;;24.20;99.90;;;;;;5141146;28;20445;-48
2023/08/17 10:25:15;;;;;;;4.87;2.70;;;23.80;99.90;;;;;;5138817;28;20492;-46
2023/08/17 10:27:46;;;;;;;3.83;2.57;;;23.60;99.90;;;;;;5124161;28;20998;-47
2023/08/17 10:30:17;;;;;;;4.03;2.60;;;23.50;99.90;;;;;;5123627;28;20445;-48
2023/08/17 10:32:48;;;;;;;2.90;2.70;;;23.50;99.90;;;;;;5126853;28;20440;-48
2023/08/17 10:35:19;;;;;;;2.87;2.60;;;23.40;99.90;;;;;;5142713;28;20201;-47
2023/08/17 10:37:50;;;;;;;3.63;3.00;;;23.40;99.90;;;;;;5128187;28;20453;-46
2023/08/17 10:40:28;;;;;;;3.07;2.90;;;23.20;99.90;;;;;;5140697;28;20647;-46
2023/08/17 10:42:59;;;;;;;6.33;2.90;;;23.20;99.90;;;;;;5138901;28;20807;-48
2023/08/17 10:45:31;;;;;;;3.00;2.87;;;23.30;99.90;;;;;;5139921;28;20433;-46
2023/08/17 10:48:05;;;;;;;3.63;2.80;;;23.60;99.90;;;;;;5124904;28;20659;-48
2023/08/17 10:50:37;;;;;;;3.00;2.80;;;24.00;99.90;;;;;;5145704;28;20444;-45
2023/08/17 10:53:12;;;;;;;3.03;2.93;;;24.30;99.90;;;;;;5128540;28;20432;-47
2023/08/17 10:55:51;;;;;;;3.53;2.53;;;24.70;99.90;;;;;;5143314;28;20436;-47
2023/08/17 10:58:21;;;;;;;5.40;2.40;;;24.80;99.90;;;;;;5127856;28;20582;-46
2023/08/17 11:00:58;;;;;;;2.37;2.27;;;24.80;99.90;;;;;;5135713;28;20878;-49
2023/08/17 11:03:29;;;;;;;4.13;2.63;;;24.60;99.90;;;;;;5127328;28;20275;-47
2023/08/17 11:06:16;;;;;;;5.40;2.77;;;24.40;99.90;;;;;;5141785;28;20802;-46
2023/08/17 11:08:55;;;;;;;2.97;2.60;;;24.40;99.90;;;;;;5127069;28;20220;-47
2023/08/17 11:11:31;;;;;;;3.10;2.83;;;24.30;99.90;;;;;;5142455;28;21025;-48
2023/08/17 11:14:02;;;;;;;4.37;3.50;;;24.30;99.90;;;;;;5141568;28;20528;-46
2023/08/17 11:16:33;;;;;;;4.90;3.50;;;24.20;99.90;;;;;;5139681;28;20437;-48
2023/08/17 11:19:03;;;;;;;3.63;2.83;;;24.10;99.90;;;;;;5128410;28;20524;-46
2023/08/17 11:21:35;;;;;;;3.30;3.03;;;24.10;99.90;;;;;;5140736;28;21239;-47
2023/08/17 11:24:09;;;;;;;6.17;4.13;;;24.10;99.90;;;;;;5136821;28;20550;-46
2023/08/17 11:26:40;;;;;;;2.90;2.73;;;24.30;99.90;;;;;;5121403;28;20440;-48
2023/08/17 11:29:11;;;;;;;5.23;3.17;;;24.40;99.90;;;;;;5123761;28;20528;-49
2023/08/17 11:31:42;;;;;;;3.47;3.20;;;24.30;99.90;;;;;;5136345;28;20934;-46
2023/08/17 11:34:15;;;;;;;3.03;2.90;;;24.40;99.90;;;;;;5138341;28;20205;-46
2023/08/17 11:36:46;;;;;;;3.40;3.10;;;24.50;99.90;;;;;;5136427;28;20182;-47
2023/08/17 11:39:20;;;;;;;3.20;3.10;;;24.50;99.90;;;;;;5135073;28;20850;-47
2023/08/17 11:41:52;;;;;;;3.00;2.80;;;24.40;99.90;;;;;;5140935;28;20219;-46
2023/08/17 11:44:24;;;;;;;6.07;3.07;;;24.60;99.90;;;;;;5134808;28;20934;-47
2023/08/17 11:46:55;;;;;;;4.07;3.77;;;24.90;99.90;;;;;;5141164;28;20776;-46
2023/08/17 11:49:26;;;;;;;2.80;2.70;;;24.90;99.90;;;;;;5139193;28;20475;-46
2023/08/17 11:51:57;;;;;;;3.90;3.50;;;25.10;99.90;;;;;;5141243;28;20201;-48
2023/08/17 11:54:28;;;;;;;4.47;3.40;;;25.20;99.90;;;;;;5122714;28;20213;-47
2023/08/17 11:56:58;;;;;;;4.20;3.20;;;25.30;99.90;;;;;;5121556;28;20249;-46
2023/08/17 11:59:32;;;;;;;7.57;3.70;;;25.50;99.90;;;;;;5142792;28;20433;-49
2023/08/17 12:02:03;;;;;;;4.13;3.10;;;25.70;99.90;;;;;;5139992;28;20201;-46
2023/08/17 12:04:34;;;;;;;2.77;2.67;;;25.90;99.90;;;;;;5139168;28;20588;-47
2023/08/17 12:07:05;;;;;;;4.20;3.20;;;26.00;99.90;;;;;;5136913;28;20186;-47
2023/08/17 12:09:36;;;;;;;10.97;4.07;;;26.20;99.90;;;;;;5125376;28;20659;-48
2023/08/17 12:12:07;;;;;;;3.80;3.60;;;26.20;99.90;;;;;;5132759;28;20463;-47
2023/08/17 12:14:42;;;;;;;4.83;3.20;;;26.20;99.90;;;;;;5137387;28;20194;-48
2023/08/17 12:17:18;;;;;;;4.27;3.97;;;26.20;99.90;;;;;;5140539;28;20555;-48
2023/08/17 12:19:50;;;;;;;7.57;3.93;;;26.20;99.90;;;;;;5137086;28;20439;-48
2023/08/17 12:22:25;;;;;;;4.43;3.23;;;26.20;99.90;;;;;;5138642;28;20595;-49
2023/08/17 12:24:56;;;;;;;4.20;3.90;;;26.30;99.90;;;;;;5139504;28;20439;-47
2023/08/17 12:27:26;;;;;;;6.10;4.20;;;26.30;99.90;;;;;;5134856;28;20487;-47
2023/08/17 12:29:57;;;;;;;4.07;3.77;;;26.30;99.90;;;;;;5136468;28;20182;-46
2023/08/17 12:32:28;;;;;;;4.20;3.50;;;26.30;99.90;;;;;;5141115;28;20253;-46
2023/08/17 12:34:58;;;;;;;4.50;3.63;;;26.40;99.90;;;;;;5139877;28;20276;-46
2023/08/17 12:37:29;;;;;;;4.57;3.83;;;26.30;99.90;;;;;;5126368;28;20232;-46
2023/08/17 12:40:00;;;;;;;5.50;3.90;;;26.40;99.90;;;;;;5125373;28;20181;-49
2023/08/17 12:42:31;;;;;;;4.30;3.87;;;26.30;99.90;;;;;;5138736;28;20602;-45
2023/08/17 12:45:02;;;;;;;4.57;4.27;;;26.30;99.90;;;;;;5141371;28;20318;-47
2023/08/17 12:47:32;;;;;;;8.43;3.40;;;26.40;99.90;;;;;;5138040;28;20198;-47
2023/08/17 12:50:04;;;;;;;4.13;3.93;;;26.30;99.90;;;;;;5132536;28;20553;-49
2023/08/17 12:52:35;;;;;;;5.40;4.00;;;26.20;99.90;;;;;;5142041;28;20248;-45
2023/08/17 12:55:06;;;;;;;4.27;3.97;;;25.90;99.90;;;;;;5116655;28;20540;-47
2023/08/17 12:57:36;;;;;;;4.37;3.90;;;25.90;99.90;;;;;;5139428;28;20515;-46
2023/08/17 13:00:08;;;;;;;3.80;3.50;;;26.10;99.90;;;;;;5133806;28;20175;-49
2023/08/17 13:02:39;;;;;;;4.07;3.70;;;26.40;99.90;;;;;;5135894;28;20750;-48
2023/08/17 13:05:10;;;;;;;3.27;3.10;;;26.90;99.90;;;;;;5136948;28;20535;-47
2023/08/17 13:07:41;;;;;;;4.13;3.73;;;27.20;99.90;;;;;;5139558;28;20348;-46